createdAt,value
2018-12-31T00:02:20.264Z,-0.50
2018-12-31T00:14:05.019Z,-0.70
2018-12-31T00:16:53.501Z,-0.70
2018-12-31T00:19:22.910Z,-0.70
2018-12-31T00:22:11.366Z,-0.70
2018-12-31T00:24:59.753Z,-0.70
2018-12-31T00:30:33.975Z,-0.70
2018-12-31T00:33:03.303Z,-0.70
2018-12-31T00:35:32.651Z,-0.70
2018-12-31T00:38:01.994Z,-0.70
2018-12-31T00:40:31.395Z,-0.60
2018-12-31T00:43:00.732Z,-0.70
2018-12-31T00:45:30.055Z,-0.70
2018-12-31T00:47:59.537Z,-0.60
2018-12-31T00:50:28.937Z,-0.50
2018-12-31T00:52:58.339Z,-0.50
2018-12-31T00:55:27.744Z,-0.50
2018-12-31T00:57:57.074Z,-0.40
2018-12-31T01:00:26.482Z,-0.50
2018-12-31T01:02:55.847Z,-0.50
2018-12-31T01:05:25.246Z,-0.40
2018-12-31T01:07:54.579Z,-0.40
2018-12-31T01:10:23.911Z,-0.50
2018-12-31T01:12:53.246Z,-0.60
2018-12-31T01:15:22.659Z,-0.60
2018-12-31T01:17:51.982Z,-0.60
2018-12-31T01:20:21.315Z,-0.70
2018-12-31T01:22:50.666Z,-0.70
2018-12-31T01:25:20.016Z,-0.70
2018-12-31T01:27:49.421Z,-0.70
2018-12-31T01:30:18.893Z,-0.80
2018-12-31T01:32:48.286Z,-0.80
2018-12-31T01:35:17.627Z,-0.80
2018-12-31T01:37:46.962Z,-0.90
2018-12-31T01:40:16.295Z,-0.90
2018-12-31T01:42:45.622Z,-1.00
2018-12-31T01:45:15.026Z,-0.90
2018-12-31T01:47:44.491Z,-1.00
2018-12-31T01:50:13.908Z,-1.00
2018-12-31T01:52:43.243Z,-1.00
2018-12-31T01:55:12.579Z,-1.10
2018-12-31T01:57:42.003Z,-1.00
2018-12-31T02:00:11.338Z,-1.10
2018-12-31T02:02:40.672Z,-1.10
2018-12-31T02:05:10.092Z,-1.10
2018-12-31T02:07:39.422Z,-1.10
2018-12-31T02:10:08.754Z,-1.00
2018-12-31T02:12:38.100Z,-1.00
2018-12-31T02:15:07.523Z,-1.00
2018-12-31T02:17:36.886Z,-0.90
2018-12-31T02:20:06.469Z,-0.90
2018-12-31T02:22:54.915Z,-0.90
2018-12-31T02:25:24.242Z,-0.90
2018-12-31T02:27:53.562Z,-0.90
2018-12-31T02:30:22.909Z,-0.80
2018-12-31T02:32:52.307Z,-0.90
2018-12-31T02:35:21.654Z,-0.90
2018-12-31T02:37:50.990Z,-0.90
2018-12-31T02:40:20.396Z,-0.90
2018-12-31T02:43:08.855Z,-0.90
2018-12-31T02:45:57.246Z,-0.90
2018-12-31T03:13:21.719Z,-1.40
2018-12-31T03:15:51.106Z,-1.40
2018-12-31T03:18:20.515Z,-1.50
2018-12-31T03:20:49.848Z,-1.40
2018-12-31T03:23:19.273Z,-1.40
2018-12-31T03:26:07.708Z,-1.50
2018-12-31T03:28:56.086Z,-1.60
2018-12-31T03:34:30.683Z,-1.50
2018-12-31T03:37:19.058Z,-1.50
2018-12-31T03:40:07.493Z,-1.50
2018-12-31T03:42:36.895Z,-1.70
2018-12-31T03:45:25.278Z,-1.70
2018-12-31T04:06:26.439Z,-2.30
2018-12-31T04:09:14.856Z,-2.20
2018-12-31T05:22:44.283Z,-2.70
2018-12-31T05:25:32.667Z,-2.60
2018-12-31T05:49:38.891Z,-2.10
2018-12-31T05:52:27.407Z,-2.20
2018-12-31T05:58:01.522Z,-2.00
2018-12-31T06:00:49.910Z,-2.00
2018-12-31T06:03:38.395Z,-2.20
2018-12-31T06:15:23.154Z,-2.60
2018-12-31T06:17:52.482Z,-2.70
2018-12-31T06:20:40.866Z,-2.70
2018-12-31T06:23:29.379Z,-2.60
2018-12-31T06:29:03.847Z,-2.70
2018-12-31T06:34:52.378Z,-2.80
2018-12-31T06:37:40.786Z,-2.80
2018-12-31T06:40:10.153Z,-2.70
2018-12-31T06:42:39.556Z,-2.70
2018-12-31T06:45:27.992Z,-2.50
2018-12-31T06:48:16.422Z,-2.60
2018-12-31T07:06:11.702Z,-2.80
2018-12-31T07:09:00.142Z,-2.90
2018-12-31T07:11:48.522Z,-2.90
2018-12-31T07:14:17.880Z,-2.90
2018-12-31T07:16:47.286Z,-2.80
2018-12-31T07:19:16.642Z,-2.70
2018-12-31T07:21:46.069Z,-2.70
2018-12-31T07:24:15.398Z,-2.60
2018-12-31T07:26:44.739Z,-2.60
2018-12-31T07:29:14.075Z,-2.50
2018-12-31T07:31:43.407Z,-2.60
2018-12-31T07:34:12.749Z,-2.60
2018-12-31T07:36:42.154Z,-2.50
2018-12-31T07:39:11.491Z,-2.50
2018-12-31T07:41:40.912Z,-2.40
2018-12-31T07:44:10.347Z,-2.40
2018-12-31T07:46:39.731Z,-2.30
2018-12-31T07:49:09.071Z,-2.20
2018-12-31T07:51:57.559Z,-2.30
2018-12-31T07:54:26.915Z,-2.20
2018-12-31T07:57:15.292Z,-2.30
2018-12-31T08:00:04.578Z,-2.30
2018-12-31T08:24:10.406Z,-1.50
2018-12-31T08:26:58.967Z,-1.40
2018-12-31T08:29:47.398Z,-1.50
2018-12-31T08:35:22.175Z,-1.50
2018-12-31T08:38:10.562Z,-1.40
2018-12-31T08:46:57.582Z,-1.50
2018-12-31T08:49:46.030Z,-1.50
2018-12-31T09:07:41.279Z,-1.30
2018-12-31T09:10:29.682Z,-1.30
2018-12-31T09:13:18.075Z,-1.40
2018-12-31T09:28:08.106Z,-1.30
2018-12-31T09:30:56.507Z,-1.30
2018-12-31T10:16:38.251Z,-1.10
2018-12-31T10:19:26.626Z,-1.20
2018-12-31T10:21:55.951Z,-1.20
2018-12-31T10:24:25.271Z,-1.20
2018-12-31T10:26:54.652Z,-1.30
2018-12-31T10:29:24.077Z,-1.30
2018-12-31T10:31:53.562Z,-1.30
2018-12-31T10:34:22.898Z,-1.30
2018-12-31T10:36:52.247Z,-1.30
2018-12-31T10:39:21.583Z,-1.30
2018-12-31T10:41:50.910Z,-1.30
2018-12-31T10:44:20.270Z,-1.30
2018-12-31T10:46:49.671Z,-1.20
2018-12-31T10:49:38.135Z,-1.10
2018-12-31T10:52:26.569Z,-1.10
2018-12-31T11:01:06.053Z,-1.10
2018-12-31T11:03:54.471Z,-1.00
2018-12-31T11:09:29.183Z,-1.00
2018-12-31T11:12:17.562Z,-1.00
2018-12-31T11:14:46.903Z,-0.90
2018-12-31T11:17:35.351Z,-0.90
2018-12-31T11:20:04.735Z,-0.80
2018-12-31T11:22:53.175Z,-0.80
2018-12-31T11:31:32.953Z,-0.60
2018-12-31T11:34:21.400Z,-0.50
2018-12-31T11:39:56.074Z,-0.60
2018-12-31T11:42:44.522Z,-0.60
2018-12-31T11:51:24.799Z,-0.60
2018-12-31T11:54:13.309Z,-0.50
2018-12-31T11:59:47.557Z,-0.50
2018-12-31T12:02:23.462Z,-0.40
2018-12-31T12:04:48.063Z,-0.40
2018-12-31T12:07:17.420Z,-0.40
2018-12-31T12:09:46.831Z,-0.40
2018-12-31T12:12:16.278Z,-0.30
2018-12-31T12:14:45.682Z,-0.30
2018-12-31T12:17:15.088Z,-0.30
2018-12-31T12:19:44.659Z,-0.20
2018-12-31T12:22:14.079Z,-0.20
2018-12-31T12:24:43.478Z,-0.20
2018-12-31T12:27:12.899Z,-0.20
2018-12-31T12:29:42.302Z,-0.10
2018-12-31T12:32:11.722Z,-0.10
2018-12-31T12:34:41.154Z,-0.10
2018-12-31T12:37:10.969Z,-0.10
2018-12-31T12:39:40.392Z,0.00
2018-12-31T12:42:09.795Z,0.00
2018-12-31T12:44:39.197Z,0.00
2018-12-31T12:47:08.595Z,0.10
2018-12-31T12:49:38.203Z,0.10
2018-12-31T12:52:07.607Z,0.10
2018-12-31T12:54:36.949Z,0.10
2018-12-31T12:57:06.349Z,0.10
2018-12-31T12:59:35.781Z,0.20
2018-12-31T13:02:05.228Z,0.20
2018-12-31T13:04:34.636Z,0.20
2018-12-31T13:07:04.191Z,0.20
2018-12-31T13:09:33.598Z,0.30
2018-12-31T13:12:02.994Z,0.30
2018-12-31T13:14:32.407Z,0.30
2018-12-31T13:17:01.822Z,0.30
2018-12-31T13:19:31.230Z,0.30
2018-12-31T13:22:00.575Z,0.30
2018-12-31T13:24:30.054Z,0.30
2018-12-31T13:26:59.491Z,0.30
2018-12-31T13:29:28.927Z,0.40
2018-12-31T13:31:58.294Z,0.30
2018-12-31T13:34:27.690Z,0.30
2018-12-31T13:36:57.251Z,0.30
2018-12-31T13:39:26.698Z,0.40
2018-12-31T13:41:56.106Z,0.40
2018-12-31T13:44:25.495Z,0.40
2018-12-31T13:46:54.966Z,0.40
2018-12-31T13:49:24.680Z,0.40
2018-12-31T13:51:54.139Z,0.50
2018-12-31T13:54:42.515Z,0.50
2018-12-31T13:57:30.995Z,0.50
2018-12-31T14:03:06.067Z,0.50
2018-12-31T14:05:54.522Z,0.60
2018-12-31T14:17:39.925Z,0.60
2018-12-31T14:20:28.459Z,0.70
2018-12-31T14:23:16.923Z,0.70
2018-12-31T14:34:25.465Z,0.80
2018-12-31T14:36:54.874Z,0.80
2018-12-31T14:39:43.254Z,0.80
2018-12-31T14:42:31.747Z,0.90
2018-12-31T15:00:26.985Z,0.80
2018-12-31T15:03:15.442Z,0.90
2018-12-31T15:06:04.070Z,0.90
2018-12-31T15:08:33.482Z,0.90
2018-12-31T15:11:22.167Z,0.90
2018-12-31T15:26:12.895Z,0.90
2018-12-31T15:29:01.583Z,0.90
2018-12-31T15:37:41.572Z,1.00
2018-12-31T15:40:30.010Z,1.00
2018-12-31T15:55:19.973Z,1.00
2018-12-31T15:57:49.379Z,1.00
2018-12-31T16:00:19.088Z,1.00
2018-12-31T16:02:48.552Z,1.00
2018-12-31T16:05:17.958Z,1.00
2018-12-31T16:07:47.356Z,1.00
2018-12-31T16:10:16.760Z,1.00
2018-12-31T16:12:46.386Z,1.00
2018-12-31T16:15:15.811Z,1.10
2018-12-31T16:17:45.226Z,1.10
2018-12-31T16:20:33.675Z,1.10
2018-12-31T16:23:03.086Z,1.10
2018-12-31T16:25:32.478Z,1.10
2018-12-31T16:28:20.873Z,1.10
2018-12-31T16:30:50.567Z,1.20
2018-12-31T16:33:19.999Z,1.10
2018-12-31T16:35:49.436Z,1.10
2018-12-31T16:38:18.811Z,1.20
2018-12-31T16:40:48.170Z,1.10
2018-12-31T16:43:17.775Z,1.20
2018-12-31T16:45:47.180Z,1.20
2018-12-31T16:48:16.634Z,1.20
2018-12-31T16:50:46.051Z,1.20
2018-12-31T16:53:15.383Z,1.30
2018-12-31T16:55:44.796Z,1.20
2018-12-31T16:58:14.135Z,1.20
2018-12-31T17:00:43.530Z,1.20
2018-12-31T17:03:12.922Z,1.20
2018-12-31T17:05:42.323Z,1.20
2018-12-31T17:08:30.758Z,1.30
2018-12-31T17:11:00.207Z,1.30
2018-12-31T17:13:29.518Z,1.30
2018-12-31T17:15:58.918Z,1.30
2018-12-31T17:18:28.323Z,1.30
2018-12-31T17:20:57.723Z,1.30
2018-12-31T17:23:27.123Z,1.30
2018-12-31T17:25:56.599Z,1.30
2018-12-31T17:28:25.994Z,1.30
2018-12-31T17:31:14.590Z,1.30
2018-12-31T17:33:43.990Z,1.40
2018-12-31T17:36:13.387Z,1.40
2018-12-31T17:41:48.182Z,1.40
2018-12-31T17:44:17.579Z,1.40
2018-12-31T17:46:46.979Z,1.40
2018-12-31T17:49:16.383Z,1.50
2018-12-31T17:51:45.786Z,1.60
2018-12-31T17:54:34.238Z,1.60
2018-12-31T17:57:03.638Z,1.60
2018-12-31T17:59:32.963Z,1.60
2018-12-31T18:02:02.370Z,1.50
2018-12-31T18:04:31.767Z,1.50
2018-12-31T18:07:01.166Z,1.40
2018-12-31T18:09:30.563Z,1.50
2018-12-31T18:11:59.964Z,1.50
2018-12-31T18:14:29.363Z,1.50
2018-12-31T18:16:58.687Z,1.50
2018-12-31T18:19:28.104Z,1.60
2018-12-31T18:21:57.531Z,1.60
2018-12-31T18:24:27.018Z,1.60
2018-12-31T18:26:56.544Z,1.70
2018-12-31T18:29:25.861Z,1.70
2018-12-31T18:31:55.262Z,1.60
2018-12-31T18:34:24.671Z,1.60
2018-12-31T18:36:54.067Z,1.70
2018-12-31T18:39:23.470Z,1.80
2018-12-31T18:41:52.887Z,1.70
2018-12-31T18:44:41.363Z,1.80
2018-12-31T18:47:10.805Z,1.90
2018-12-31T18:49:40.195Z,1.90
2018-12-31T18:52:09.819Z,1.80
2018-12-31T18:54:58.199Z,1.90
2018-12-31T18:57:27.625Z,1.90
2018-12-31T18:59:57.021Z,1.90
2018-12-31T19:02:26.432Z,1.90
2018-12-31T19:04:55.826Z,1.80
2018-12-31T19:07:25.255Z,1.90
2018-12-31T19:09:54.580Z,1.90
2018-12-31T19:12:23.999Z,1.90
2018-12-31T19:14:53.410Z,1.90
2018-12-31T19:17:22.811Z,1.90
2018-12-31T19:19:52.219Z,2.00
2018-12-31T19:22:21.638Z,2.10
2018-12-31T19:24:51.033Z,2.10
2018-12-31T19:27:39.503Z,2.10
2018-12-31T19:30:09.239Z,2.10
2018-12-31T19:32:38.671Z,2.10
2018-12-31T19:35:07.992Z,2.10
2018-12-31T19:37:37.442Z,2.10
2018-12-31T19:40:06.891Z,2.20
2018-12-31T19:42:36.294Z,2.20
2018-12-31T19:45:05.867Z,2.20
2018-12-31T19:47:35.506Z,2.30
2018-12-31T19:50:05.222Z,2.20
2018-12-31T19:52:34.546Z,2.30
2018-12-31T19:55:04.015Z,2.30
2018-12-31T19:57:33.353Z,2.30
2018-12-31T20:00:03.062Z,2.30
2018-12-31T20:02:32.451Z,2.40
2018-12-31T20:05:01.936Z,2.40
2018-12-31T20:07:31.334Z,2.50
2018-12-31T20:10:00.669Z,2.50
2018-12-31T20:12:30.479Z,2.50
2018-12-31T20:14:59.878Z,2.50
2018-12-31T20:17:29.223Z,2.50
2018-12-31T20:19:58.693Z,2.50
2018-12-31T20:22:28.095Z,2.50
2018-12-31T20:24:57.502Z,2.50
2018-12-31T20:27:26.914Z,2.60
2018-12-31T20:29:56.315Z,2.60
2018-12-31T20:32:25.709Z,2.70
2018-12-31T20:34:55.162Z,2.70
2018-12-31T20:37:24.558Z,2.70
2018-12-31T20:39:53.962Z,2.70
2018-12-31T20:42:23.367Z,2.70
2018-12-31T20:44:52.777Z,2.70
2018-12-31T20:47:22.182Z,2.70
2018-12-31T20:49:51.576Z,2.80
2018-12-31T20:52:21.275Z,2.80
2018-12-31T20:54:50.826Z,2.90
2018-12-31T20:57:20.228Z,2.90
2018-12-31T20:59:49.634Z,2.90
2018-12-31T21:02:19.039Z,2.90
2018-12-31T21:04:48.571Z,3.00
2018-12-31T21:07:17.967Z,3.00
2018-12-31T21:09:47.371Z,3.00
2018-12-31T21:12:16.817Z,3.00
2018-12-31T21:14:46.211Z,3.00
2018-12-31T21:17:15.822Z,3.00
2018-12-31T21:20:04.651Z,3.10
2018-12-31T21:28:20.695Z,3.80
2018-12-31T21:30:50.011Z,3.20
2018-12-31T21:33:19.347Z,3.20
2018-12-31T21:36:07.802Z,3.20
2018-12-31T21:38:56.292Z,3.20
2018-12-31T22:02:57.446Z,3.40
2018-12-31T22:05:45.882Z,3.40
2018-12-31T22:29:51.076Z,3.50
2018-12-31T22:32:39.526Z,3.60
2018-12-31T22:56:44.423Z,3.90
2018-12-31T22:59:14.047Z,4.00
2018-12-31T23:01:43.443Z,3.90
2018-12-31T23:04:12.784Z,3.90
2018-12-31T23:06:42.911Z,4.00
2018-12-31T23:09:14.587Z,3.90
2018-12-31T23:11:44.083Z,3.90
2018-12-31T23:14:13.490Z,3.90
2018-12-31T23:17:03.606Z,3.90
2018-12-31T23:19:41.377Z,3.90
2018-12-31T23:22:04.698Z,3.90
2018-12-31T23:24:34.106Z,3.90
2018-12-31T23:27:03.796Z,4.00
2018-12-31T23:29:33.209Z,4.00
2018-12-31T23:32:02.750Z,4.00
2018-12-31T23:34:32.152Z,4.10
2018-12-31T23:37:01.685Z,4.00
2018-12-31T23:39:31.081Z,4.10
2018-12-31T23:42:00.477Z,4.20
2018-12-31T23:44:30.086Z,4.20
2018-12-31T23:46:59.496Z,4.20
2018-12-31T23:49:28.886Z,4.20
2018-12-31T23:51:58.301Z,4.30
2018-12-31T23:54:27.698Z,4.30
2018-12-31T23:56:57.302Z,4.30
2018-12-31T23:59:26.715Z,4.30
